createdAt,value
2023-06-17T00:03:00.169Z,99.90
2023-06-17T00:08:02.677Z,99.90
2023-06-17T00:13:05.009Z,99.90
2023-06-17T00:18:08.718Z,99.90
2023-06-17T00:23:10.846Z,99.90
2023-06-17T00:28:13.107Z,99.90
2023-06-17T00:33:16.525Z,99.90
2023-06-17T00:38:19.922Z,99.90
2023-06-17T00:43:23.140Z,99.90
2023-06-17T00:48:26.213Z,99.90
2023-06-17T00:53:28.948Z,99.90
2023-06-17T00:58:32.020Z,99.90
2023-06-17T01:03:35.652Z,99.90
2023-06-17T01:08:45.517Z,99.90
2023-06-17T01:13:51.696Z,99.90
2023-06-17T01:18:55.390Z,99.90
2023-06-17T01:24:02.021Z,99.90
2023-06-17T01:29:04.239Z,99.90
2023-06-17T01:34:07.808Z,99.90
2023-06-17T01:39:17.062Z,99.90
2023-06-17T01:44:20.552Z,99.90
2023-06-17T01:49:23.128Z,99.90
2023-06-17T01:54:25.348Z,99.90
2023-06-17T01:59:28.187Z,99.90
2023-06-17T02:04:30.395Z,99.90
2023-06-17T02:09:33.437Z,99.90
2023-06-17T02:14:35.698Z,99.90
2023-06-17T02:19:40.906Z,99.90
2023-06-17T02:24:44.006Z,99.90
2023-06-17T02:29:46.615Z,99.90
2023-06-17T02:40:55.076Z,99.90
2023-06-17T02:46:45.698Z,99.90
2023-06-17T02:52:55.272Z,99.90
2023-06-17T02:58:30.072Z,99.90
2023-06-17T03:03:39.568Z,99.90
2023-06-17T03:08:45.636Z,99.90
2023-06-17T03:13:47.986Z,99.90
2023-06-17T03:18:55.788Z,99.90
2023-06-17T03:23:59.350Z,99.90
2023-06-17T03:29:02.910Z,99.90
2023-06-17T03:34:05.180Z,99.90
2023-06-17T03:39:07.725Z,99.90
2023-06-17T03:44:12.604Z,99.90
2023-06-17T03:49:14.829Z,99.90
2023-06-17T03:54:18.059Z,99.90
2023-06-17T03:59:20.370Z,99.90
2023-06-17T04:04:24.694Z,99.90
2023-06-17T04:09:27.146Z,99.90
2023-06-17T04:14:29.431Z,99.90
2023-06-17T04:19:33.105Z,99.90
2023-06-17T04:24:35.793Z,99.90
2023-06-17T04:29:38.681Z,99.90
2023-06-17T04:34:43.783Z,99.90
2023-06-17T04:39:47.050Z,99.90
2023-06-17T04:44:50.171Z,99.90
2023-06-17T04:49:52.965Z,99.90
2023-06-17T04:54:55.733Z,99.90
2023-06-17T04:59:58.315Z,99.90
2023-06-17T05:05:01.042Z,99.90
2023-06-17T05:10:04.360Z,99.90
2023-06-17T05:15:09.400Z,99.90
2023-06-17T05:20:12.108Z,99.90
2023-06-17T05:25:15.839Z,99.90
2023-06-17T05:30:19.138Z,99.90
2023-06-17T05:35:24.490Z,99.90
2023-06-17T05:40:26.902Z,99.90
2023-06-17T05:45:29.539Z,99.90
2023-06-17T05:50:32.557Z,99.90
2023-06-17T05:55:36.645Z,99.90
2023-06-17T06:00:38.896Z,99.90
2023-06-17T06:05:41.067Z,99.90
2023-06-17T06:10:43.324Z,99.90
2023-06-17T06:15:45.851Z,99.90
2023-06-17T06:20:48.115Z,99.90
2023-06-17T06:25:50.384Z,99.90
2023-06-17T06:30:52.718Z,99.90
2023-06-17T06:35:54.880Z,99.90
2023-06-17T06:40:58.898Z,99.90
2023-06-17T06:46:02.952Z,99.90
2023-06-17T06:51:05.581Z,99.90
2023-06-17T06:56:08.470Z,99.90
2023-06-17T07:01:14.978Z,99.90
2023-06-17T07:06:17.666Z,99.90
2023-06-17T07:11:21.732Z,99.90
2023-06-17T07:16:34.869Z,99.90
2023-06-17T07:22:04.040Z,99.90
2023-06-17T07:27:09.547Z,99.90
2023-06-17T07:43:31.740Z,99.90
2023-06-17T07:49:06.307Z,99.90
2023-06-17T07:54:55.869Z,99.90
2023-06-17T08:05:44.948Z,99.90
2023-06-17T08:10:58.303Z,98.50
2023-06-17T08:16:13.415Z,98.80
2023-06-17T08:21:18.780Z,97.60
2023-06-17T08:26:21.349Z,98.40
2023-06-17T08:31:27.639Z,98.70
2023-06-17T08:36:30.781Z,98.50
2023-06-17T08:41:42.364Z,99.00
2023-06-17T08:46:47.089Z,99.10
2023-06-17T08:57:45.531Z,97.90
2023-06-17T09:02:48.922Z,97.90
2023-06-17T09:07:55.787Z,98.60
2023-06-17T09:13:02.037Z,98.60
2023-06-17T09:18:09.525Z,99.30
2023-06-17T09:23:18.495Z,99.90
2023-06-17T09:28:20.759Z,99.90
2023-06-17T09:33:26.106Z,99.90
2023-06-17T09:38:29.257Z,99.90
2023-06-17T09:43:31.852Z,99.90
2023-06-17T09:48:38.811Z,99.90
2023-06-17T09:53:43.328Z,99.90
2023-06-17T09:58:46.113Z,99.90
2023-06-17T10:03:48.968Z,99.90
2023-06-17T10:08:53.317Z,99.90
2023-06-17T10:14:01.949Z,99.90
2023-06-17T10:19:06.717Z,99.90
2023-06-17T10:24:09.784Z,99.90
2023-06-17T10:29:12.885Z,99.90
2023-06-17T10:34:25.313Z,98.40
2023-06-17T10:39:27.802Z,99.80
2023-06-17T10:44:36.099Z,99.90
2023-06-17T10:49:42.406Z,99.90
2023-06-17T10:54:55.394Z,99.90
2023-06-17T11:00:08.123Z,99.60
2023-06-17T11:05:10.481Z,99.90
2023-06-17T11:10:12.748Z,99.90
2023-06-17T11:15:15.665Z,99.90
2023-06-17T11:20:19.018Z,99.90
2023-06-17T11:25:26.925Z,99.90
2023-06-17T11:30:39.685Z,99.90
2023-06-17T11:35:44.485Z,99.90
2023-06-17T11:40:46.612Z,99.90
2023-06-17T11:45:48.888Z,99.90
2023-06-17T11:50:51.095Z,99.90
2023-06-17T11:55:55.247Z,99.90
2023-06-17T12:01:01.944Z,99.90
2023-06-17T12:06:04.931Z,99.90
2023-06-17T12:11:29.073Z,99.90
2023-06-17T12:16:34.947Z,99.90
2023-06-17T12:21:43.192Z,99.90
2023-06-17T12:26:51.110Z,99.90
2023-06-17T12:31:54.244Z,99.90
2023-06-17T12:36:56.630Z,99.90
2023-06-17T12:42:00.038Z,99.90
2023-06-17T12:47:03.727Z,99.90
2023-06-17T12:52:06.353Z,99.90
2023-06-17T12:57:09.433Z,99.90
2023-06-17T13:02:12.690Z,99.90
2023-06-17T13:07:17.803Z,99.90
2023-06-17T13:12:21.009Z,99.90
2023-06-17T13:17:23.591Z,99.90
2023-06-17T13:22:26.896Z,99.90
2023-06-17T13:27:29.598Z,99.90
2023-06-17T13:32:32.514Z,99.90
2023-06-17T13:37:35.670Z,99.90
2023-06-17T13:42:38.113Z,99.90
2023-06-17T13:47:40.520Z,99.90
2023-06-17T13:52:42.714Z,99.90
2023-06-17T13:57:44.884Z,99.90
2023-06-17T14:02:47.150Z,99.90
2023-06-17T14:07:52.780Z,99.90
2023-06-17T14:12:56.163Z,99.90
2023-06-17T14:17:58.579Z,99.90
2023-06-17T14:23:03.929Z,99.90
2023-06-17T14:28:06.051Z,99.90
2023-06-17T14:33:08.999Z,99.90
2023-06-17T14:38:11.495Z,99.30
2023-06-17T14:43:13.886Z,99.50
2023-06-17T14:48:16.083Z,99.90
2023-06-17T14:53:41.626Z,99.90
2023-06-17T14:58:43.800Z,99.90
2023-06-17T15:03:45.903Z,99.90
2023-06-17T15:08:48.212Z,99.90
2023-06-17T15:13:51.958Z,99.90
2023-06-17T15:18:56.042Z,99.90
2023-06-17T15:23:58.193Z,99.90
2023-06-17T15:29:00.643Z,99.90
2023-06-17T15:34:03.825Z,99.90
2023-06-17T15:39:20.407Z,99.90
2023-06-17T15:44:22.885Z,99.90
2023-06-17T15:49:25.101Z,99.90
2023-06-17T15:54:27.229Z,99.90
2023-06-17T15:59:30.211Z,99.90
2023-06-17T16:04:41.562Z,99.90
2023-06-17T16:09:48.884Z,99.90
2023-06-17T16:14:51.062Z,99.90
2023-06-17T16:19:53.456Z,99.90
2023-06-17T16:24:55.646Z,99.90
2023-06-17T16:29:57.788Z,99.90
2023-06-17T16:35:00.029Z,99.90
2023-06-17T16:40:02.177Z,99.90
2023-06-17T16:45:05.602Z,99.90
2023-06-17T16:50:08.268Z,99.90
2023-06-17T16:55:10.715Z,99.90
2023-06-17T17:00:13.539Z,99.90
2023-06-17T17:05:15.909Z,99.90
2023-06-17T17:10:24.451Z,99.90
2023-06-17T17:15:26.771Z,99.90
2023-06-17T17:20:28.855Z,99.90
2023-06-17T17:25:30.977Z,99.90
2023-06-17T17:30:33.108Z,99.90
2023-06-17T17:35:37.220Z,99.90
2023-06-17T17:40:39.318Z,99.90
2023-06-17T17:45:41.528Z,99.90
2023-06-17T17:50:43.796Z,99.90
2023-06-17T17:55:46.059Z,99.90
2023-06-17T18:00:48.313Z,99.90
2023-06-17T18:05:50.422Z,99.90
2023-06-17T18:10:52.746Z,99.90
2023-06-17T18:15:54.962Z,99.90
2023-06-17T18:20:57.221Z,99.90
2023-06-17T18:25:59.352Z,99.90
2023-06-17T18:31:01.575Z,99.90
2023-06-17T18:36:03.996Z,99.90
2023-06-17T18:41:06.113Z,99.90
2023-06-17T18:46:08.339Z,99.90
2023-06-17T18:51:11.144Z,99.90
2023-06-17T18:56:13.315Z,99.90
2023-06-17T19:01:15.875Z,99.90
2023-06-17T19:06:18.151Z,99.90
2023-06-17T19:11:20.507Z,99.90
2023-06-17T19:16:22.809Z,99.90
2023-06-17T19:21:25.025Z,99.90
2023-06-17T19:26:27.249Z,99.90
2023-06-17T19:31:29.355Z,99.90
2023-06-17T19:36:31.642Z,99.90
2023-06-17T19:41:33.827Z,99.90
2023-06-17T19:46:36.907Z,99.90
2023-06-17T19:51:39.168Z,99.90
2023-06-17T19:56:41.615Z,99.90
2023-06-17T20:01:43.928Z,99.90
2023-06-17T20:06:46.171Z,99.90
2023-06-17T20:11:48.412Z,99.90
2023-06-17T20:16:51.988Z,99.90
2023-06-17T20:21:54.139Z,99.90
2023-06-17T20:26:58.469Z,99.90
2023-06-17T20:32:01.481Z,99.90
2023-06-17T20:37:03.880Z,99.90
2023-06-17T20:42:06.387Z,99.90
2023-06-17T20:47:09.198Z,99.90
2023-06-17T20:52:11.402Z,99.90
2023-06-17T20:57:13.575Z,99.90
2023-06-17T21:02:18.531Z,99.90
2023-06-17T21:07:20.999Z,99.90
2023-06-17T21:12:23.974Z,99.90
2023-06-17T21:17:26.289Z,99.90
2023-06-17T21:22:28.464Z,99.90
2023-06-17T21:27:30.620Z,99.90
2023-06-17T21:32:32.890Z,99.90
2023-06-17T21:37:35.062Z,99.90
2023-06-17T21:42:37.867Z,99.90
2023-06-17T21:47:40.038Z,99.90
2023-06-17T21:52:42.170Z,99.90
2023-06-17T21:57:44.454Z,99.90
2023-06-17T22:02:47.865Z,99.90
2023-06-17T22:07:52.018Z,99.90
2023-06-17T22:12:55.616Z,99.90
2023-06-17T22:17:57.889Z,99.90
2023-06-17T22:23:00.226Z,99.90
2023-06-17T22:28:02.681Z,99.90
2023-06-17T22:33:05.484Z,99.90
2023-06-17T22:38:07.655Z,99.90
2023-06-17T22:43:09.858Z,99.90
2023-06-17T22:48:11.986Z,99.90
2023-06-17T22:53:14.237Z,99.90
2023-06-17T22:58:16.722Z,99.90
2023-06-17T23:03:19.038Z,99.90
2023-06-17T23:08:21.191Z,99.90
2023-06-17T23:13:23.667Z,99.90
2023-06-17T23:18:25.855Z,99.90
2023-06-17T23:23:27.978Z,99.90
2023-06-17T23:28:30.132Z,99.90
2023-06-17T23:33:32.416Z,99.90
2023-06-17T23:38:36.329Z,99.90
2023-06-17T23:43:38.443Z,99.90
2023-06-17T23:48:41.826Z,99.90
2023-06-17T23:53:44.029Z,99.90
2023-06-17T23:58:46.271Z,99.90
